sensor_id;sensor_type;location;lat;lon;timestamp;P1;durP1;ratioP1;P2;durP2;ratioP2
22060;SDS011;11194;48.092;-1.382;2023-05-07T00:00:57;8.23;;;5.80;;
22060;SDS011;11194;48.092;-1.382;2023-05-07T00:03:24;9.10;;;5.97;;
22060;SDS011;11194;48.092;-1.382;2023-05-07T00:05:51;13.30;;;6.22;;
22060;SDS011;11194;48.092;-1.382;2023-05-07T00:08:18;14.27;;;6.32;;
22060;SDS011;11194;48.092;-1.382;2023-05-07T00:10:44;12.07;;;5.95;;
22060;SDS011;11194;48.092;-1.382;2023-05-07T00:13:11;18.60;;;5.78;;
22060;SDS011;11194;48.092;-1.382;2023-05-07T00:15:37;9.90;;;5.97;;
22060;SDS011;11194;48.092;-1.382;2023-05-07T00:18:03;13.07;;;5.97;;
22060;SDS011;11194;48.092;-1.382;2023-05-07T00:20:29;11.48;;;5.57;;
22060;SDS011;11194;48.092;-1.382;2023-05-07T00:22:55;10.50;;;5.88;;
22060;SDS011;11194;48.092;-1.382;2023-05-07T00:25:21;11.82;;;5.88;;
22060;SDS011;11194;48.092;-1.382;2023-05-07T00:27:47;15.07;;;6.28;;
22060;SDS011;11194;48.092;-1.382;2023-05-07T00:30:13;11.55;;;6.05;;
22060;SDS011;11194;48.092;-1.382;2023-05-07T00:32:40;12.63;;;5.70;;
22060;SDS011;11194;48.092;-1.382;2023-05-07T00:35:06;10.43;;;5.65;;
22060;SDS011;11194;48.092;-1.382;2023-05-07T00:37:32;14.85;;;6.53;;
22060;SDS011;11194;48.092;-1.382;2023-05-07T00:39:58;10.57;;;5.88;;
22060;SDS011;11194;48.092;-1.382;2023-05-07T00:42:24;12.57;;;6.80;;
22060;SDS011;11194;48.092;-1.382;2023-05-07T00:44:50;12.63;;;6.07;;
22060;SDS011;11194;48.092;-1.382;2023-05-07T00:47:16;11.35;;;5.97;;
22060;SDS011;11194;48.092;-1.382;2023-05-07T00:49:43;13.00;;;6.35;;
22060;SDS011;11194;48.092;-1.382;2023-05-07T00:52:14;13.95;;;5.95;;
22060;SDS011;11194;48.092;-1.382;2023-05-07T00:54:41;14.32;;;6.10;;
22060;SDS011;11194;48.092;-1.382;2023-05-07T00:57:07;12.75;;;5.85;;
22060;SDS011;11194;48.092;-1.382;2023-05-07T00:59:34;15.95;;;6.93;;
22060;SDS011;11194;48.092;-1.382;2023-05-07T01:02:01;12.85;;;5.80;;
22060;SDS011;11194;48.092;-1.382;2023-05-07T01:04:27;11.25;;;5.75;;
22060;SDS011;11194;48.092;-1.382;2023-05-07T01:06:56;12.82;;;6.38;;
22060;SDS011;11194;48.092;-1.382;2023-05-07T01:09:24;14.85;;;6.28;;
22060;SDS011;11194;48.092;-1.382;2023-05-07T01:11:50;12.20;;;6.25;;
22060;SDS011;11194;48.092;-1.382;2023-05-07T01:14:17;13.98;;;6.30;;
22060;SDS011;11194;48.092;-1.382;2023-05-07T01:16:44;16.67;;;6.63;;
22060;SDS011;11194;48.092;-1.382;2023-05-07T01:19:11;15.48;;;6.68;;
22060;SDS011;11194;48.092;-1.382;2023-05-07T01:21:39;12.52;;;6.05;;
22060;SDS011;11194;48.092;-1.382;2023-05-07T01:24:07;15.88;;;6.40;;
22060;SDS011;11194;48.092;-1.382;2023-05-07T01:26:33;15.07;;;6.25;;
22060;SDS011;11194;48.092;-1.382;2023-05-07T01:28:59;16.60;;;6.22;;
22060;SDS011;11194;48.092;-1.382;2023-05-07T04:00:53;17.33;;;6.72;;
22060;SDS011;11194;48.092;-1.382;2023-05-07T04:03:19;14.32;;;7.30;;
22060;SDS011;11194;48.092;-1.382;2023-05-07T04:05:45;17.77;;;6.65;;
22060;SDS011;11194;48.092;-1.382;2023-05-07T04:08:12;16.65;;;6.82;;
22060;SDS011;11194;48.092;-1.382;2023-05-07T04:10:38;18.35;;;6.78;;
22060;SDS011;11194;48.092;-1.382;2023-05-07T04:13:04;18.92;;;7.00;;
22060;SDS011;11194;48.092;-1.382;2023-05-07T04:15:30;17.20;;;7.18;;
22060;SDS011;11194;48.092;-1.382;2023-05-07T04:17:56;16.65;;;6.97;;
22060;SDS011;11194;48.092;-1.382;2023-05-07T04:20:22;17.42;;;6.55;;
22060;SDS011;11194;48.092;-1.382;2023-05-07T04:22:49;15.38;;;6.47;;
22060;SDS011;11194;48.092;-1.382;2023-05-07T04:25:15;18.27;;;7.03;;
22060;SDS011;11194;48.092;-1.382;2023-05-07T04:27:41;16.35;;;6.25;;
22060;SDS011;11194;48.092;-1.382;2023-05-07T04:30:07;15.63;;;6.68;;
22060;SDS011;11194;48.092;-1.382;2023-05-07T04:32:33;20.20;;;6.53;;
22060;SDS011;11194;48.092;-1.382;2023-05-07T04:35:01;18.15;;;6.40;;
22060;SDS011;11194;48.092;-1.382;2023-05-07T04:37:27;13.75;;;6.05;;
22060;SDS011;11194;48.092;-1.382;2023-05-07T04:39:53;12.98;;;5.82;;
22060;SDS011;11194;48.092;-1.382;2023-05-07T04:42:19;14.77;;;6.45;;
22060;SDS011;11194;48.092;-1.382;2023-05-07T04:44:45;12.05;;;5.95;;
22060;SDS011;11194;48.092;-1.382;2023-05-07T04:47:11;13.10;;;6.10;;
22060;SDS011;11194;48.092;-1.382;2023-05-07T04:49:38;17.92;;;5.80;;
22060;SDS011;11194;48.092;-1.382;2023-05-07T04:52:04;13.88;;;6.30;;
22060;SDS011;11194;48.092;-1.382;2023-05-07T04:54:30;14.18;;;5.95;;
22060;SDS011;11194;48.092;-1.382;2023-05-07T04:56:56;14.68;;;6.22;;
22060;SDS011;11194;48.092;-1.382;2023-05-07T04:59:22;12.98;;;5.90;;
22060;SDS011;11194;48.092;-1.382;2023-05-07T05:01:48;13.95;;;6.28;;
22060;SDS011;11194;48.092;-1.382;2023-05-07T05:04:14;15.73;;;6.07;;
22060;SDS011;11194;48.092;-1.382;2023-05-07T05:06:40;15.25;;;5.45;;
22060;SDS011;11194;48.092;-1.382;2023-05-07T05:09:06;14.80;;;6.47;;
22060;SDS011;11194;48.092;-1.382;2023-05-07T05:11:32;11.20;;;5.53;;
22060;SDS011;11194;48.092;-1.382;2023-05-07T05:13:59;11.93;;;5.78;;
22060;SDS011;11194;48.092;-1.382;2023-05-07T05:16:25;12.48;;;6.32;;
22060;SDS011;11194;48.092;-1.382;2023-05-07T05:18:51;19.13;;;6.07;;
22060;SDS011;11194;48.092;-1.382;2023-05-07T05:21:19;15.65;;;6.47;;
22060;SDS011;11194;48.092;-1.382;2023-05-07T05:23:45;14.85;;;6.50;;
22060;SDS011;11194;48.092;-1.382;2023-05-07T05:26:11;11.63;;;6.28;;
22060;SDS011;11194;48.092;-1.382;2023-05-07T05:28:37;14.70;;;6.32;;
22060;SDS011;11194;48.092;-1.382;2023-05-07T05:31:04;14.00;;;5.75;;
22060;SDS011;11194;48.092;-1.382;2023-05-07T05:33:30;13.13;;;5.93;;
22060;SDS011;11194;48.092;-1.382;2023-05-07T05:35:56;13.75;;;6.63;;
22060;SDS011;11194;48.092;-1.382;2023-05-07T05:38:22;12.15;;;5.78;;
22060;SDS011;11194;48.092;-1.382;2023-05-07T05:40:48;11.85;;;5.50;;
22060;SDS011;11194;48.092;-1.382;2023-05-07T05:43:14;10.20;;;6.43;;
22060;SDS011;11194;48.092;-1.382;2023-05-07T05:45:40;9.35;;;5.72;;
22060;SDS011;11194;48.092;-1.382;2023-05-07T05:48:06;12.48;;;6.07;;
22060;SDS011;11194;48.092;-1.382;2023-05-07T05:50:33;11.50;;;5.68;;
22060;SDS011;11194;48.092;-1.382;2023-05-07T05:53:01;12.68;;;5.82;;
22060;SDS011;11194;48.092;-1.382;2023-05-07T05:55:27;14.13;;;6.18;;
22060;SDS011;11194;48.092;-1.382;2023-05-07T05:57:53;14.35;;;6.07;;
22060;SDS011;11194;48.092;-1.382;2023-05-07T06:00:19;16.08;;;6.35;;
22060;SDS011;11194;48.092;-1.382;2023-05-07T06:02:47;13.80;;;6.00;;
22060;SDS011;11194;48.092;-1.382;2023-05-07T06:05:13;12.00;;;6.10;;
22060;SDS011;11194;48.092;-1.382;2023-05-07T06:07:39;11.38;;;5.85;;
22060;SDS011;11194;48.092;-1.382;2023-05-07T06:10:06;16.08;;;6.28;;
22060;SDS011;11194;48.092;-1.382;2023-05-07T06:12:32;11.32;;;5.90;;
22060;SDS011;11194;48.092;-1.382;2023-05-07T06:14:58;11.98;;;6.10;;
22060;SDS011;11194;48.092;-1.382;2023-05-07T06:17:24;15.10;;;6.05;;
22060;SDS011;11194;48.092;-1.382;2023-05-07T06:19:50;11.07;;;5.82;;
22060;SDS011;11194;48.092;-1.382;2023-05-07T06:22:16;14.98;;;6.18;;
22060;SDS011;11194;48.092;-1.382;2023-05-07T06:24:42;13.70;;;6.65;;
22060;SDS011;11194;48.092;-1.382;2023-05-07T06:27:09;12.18;;;6.53;;
22060;SDS011;11194;48.092;-1.382;2023-05-07T06:29:35;12.77;;;6.57;;
22060;SDS011;11194;48.092;-1.382;2023-05-07T06:32:07;13.45;;;7.60;;
22060;SDS011;11194;48.092;-1.382;2023-05-07T06:34:33;13.40;;;7.07;;
22060;SDS011;11194;48.092;-1.382;2023-05-07T06:37:00;12.80;;;6.75;;
22060;SDS011;11194;48.092;-1.382;2023-05-07T06:39:26;9.63;;;6.53;;
22060;SDS011;11194;48.092;-1.382;2023-05-07T06:41:52;16.02;;;6.82;;
22060;SDS011;11194;48.092;-1.382;2023-05-07T06:44:18;13.30;;;6.88;;
22060;SDS011;11194;48.092;-1.382;2023-05-07T06:46:44;17.65;;;6.90;;
22060;SDS011;11194;48.092;-1.382;2023-05-07T06:49:11;10.68;;;6.60;;
22060;SDS011;11194;48.092;-1.382;2023-05-07T06:51:37;15.95;;;6.20;;
22060;SDS011;11194;48.092;-1.382;2023-05-07T06:54:03;13.75;;;6.40;;
22060;SDS011;11194;48.092;-1.382;2023-05-07T06:56:32;16.60;;;6.80;;
22060;SDS011;11194;48.092;-1.382;2023-05-07T06:58:59;11.70;;;5.80;;
22060;SDS011;11194;48.092;-1.382;2023-05-07T07:01:25;13.75;;;6.22;;
22060;SDS011;11194;48.092;-1.382;2023-05-07T07:03:51;12.13;;;5.80;;
22060;SDS011;11194;48.092;-1.382;2023-05-07T07:06:18;5.40;;;3.47;;
22060;SDS011;11194;48.092;-1.382;2023-05-07T07:08:44;4.90;;;3.55;;
22060;SDS011;11194;48.092;-1.382;2023-05-07T07:11:10;8.27;;;3.90;;
22060;SDS011;11194;48.092;-1.382;2023-05-07T07:13:36;5.50;;;3.60;;
22060;SDS011;11194;48.092;-1.382;2023-05-07T07:16:02;5.90;;;3.78;;
22060;SDS011;11194;48.092;-1.382;2023-05-07T07:18:28;4.97;;;2.85;;
22060;SDS011;11194;48.092;-1.382;2023-05-07T07:20:55;3.33;;;2.33;;
22060;SDS011;11194;48.092;-1.382;2023-05-07T07:23:21;4.22;;;2.75;;
22060;SDS011;11194;48.092;-1.382;2023-05-07T07:25:47;5.22;;;3.17;;
22060;SDS011;11194;48.092;-1.382;2023-05-07T07:28:13;4.60;;;3.30;;
22060;SDS011;11194;48.092;-1.382;2023-05-07T07:30:39;4.75;;;3.40;;
22060;SDS011;11194;48.092;-1.382;2023-05-07T07:33:05;5.15;;;3.35;;
22060;SDS011;11194;48.092;-1.382;2023-05-07T07:35:32;5.40;;;3.67;;
22060;SDS011;11194;48.092;-1.382;2023-05-07T07:37:58;5.68;;;3.97;;
22060;SDS011;11194;48.092;-1.382;2023-05-07T07:40:24;6.80;;;3.92;;
22060;SDS011;11194;48.092;-1.382;2023-05-07T07:42:50;6.90;;;4.03;;
22060;SDS011;11194;48.092;-1.382;2023-05-07T07:45:16;7.95;;;4.30;;
22060;SDS011;11194;48.092;-1.382;2023-05-07T07:47:42;6.38;;;3.53;;
22060;SDS011;11194;48.092;-1.382;2023-05-07T07:50:09;5.90;;;3.95;;
22060;SDS011;11194;48.092;-1.382;2023-05-07T07:52:35;6.50;;;3.90;;
22060;SDS011;11194;48.092;-1.382;2023-05-07T07:55:01;6.97;;;3.92;;
22060;SDS011;11194;48.092;-1.382;2023-05-07T07:57:27;6.32;;;3.90;;
22060;SDS011;11194;48.092;-1.382;2023-05-07T07:59:53;6.28;;;4.03;;
22060;SDS011;11194;48.092;-1.382;2023-05-07T08:02:19;6.50;;;3.78;;
22060;SDS011;11194;48.092;-1.382;2023-05-07T08:04:45;5.75;;;3.72;;
22060;SDS011;11194;48.092;-1.382;2023-05-07T08:07:11;7.07;;;3.90;;
22060;SDS011;11194;48.092;-1.382;2023-05-07T08:09:38;8.52;;;5.03;;
22060;SDS011;11194;48.092;-1.382;2023-05-07T08:12:04;10.35;;;5.38;;
22060;SDS011;11194;48.092;-1.382;2023-05-07T08:14:31;10.07;;;5.93;;
22060;SDS011;11194;48.092;-1.382;2023-05-07T08:16:57;11.90;;;6.28;;
22060;SDS011;11194;48.092;-1.382;2023-05-07T08:19:23;11.02;;;6.32;;
22060;SDS011;11194;48.092;-1.382;2023-05-07T08:21:49;10.68;;;6.38;;
22060;SDS011;11194;48.092;-1.382;2023-05-07T08:24:15;9.48;;;5.88;;
22060;SDS011;11194;48.092;-1.382;2023-05-07T08:26:42;10.20;;;6.25;;
22060;SDS011;11194;48.092;-1.382;2023-05-07T08:29:08;8.65;;;5.63;;
22060;SDS011;11194;48.092;-1.382;2023-05-07T08:31:34;10.18;;;5.40;;
22060;SDS011;11194;48.092;-1.382;2023-05-07T08:34:00;10.23;;;6.22;;
22060;SDS011;11194;48.092;-1.382;2023-05-07T08:36:26;9.75;;;6.25;;
22060;SDS011;11194;48.092;-1.382;2023-05-07T08:38:52;10.15;;;6.13;;
22060;SDS011;11194;48.092;-1.382;2023-05-07T08:41:18;11.05;;;6.60;;
22060;SDS011;11194;48.092;-1.382;2023-05-07T08:43:47;9.45;;;5.88;;
22060;SDS011;11194;48.092;-1.382;2023-05-07T08:46:16;10.32;;;6.15;;
22060;SDS011;11194;48.092;-1.382;2023-05-07T08:48:42;10.65;;;6.18;;
22060;SDS011;11194;48.092;-1.382;2023-05-07T08:51:11;8.73;;;5.95;;
22060;SDS011;11194;48.092;-1.382;2023-05-07T08:53:39;9.85;;;6.65;;
22060;SDS011;11194;48.092;-1.382;2023-05-07T08:56:06;9.90;;;6.13;;
22060;SDS011;11194;48.092;-1.382;2023-05-07T08:58:32;9.95;;;6.30;;
22060;SDS011;11194;48.092;-1.382;2023-05-07T09:00:58;8.07;;;5.18;;
22060;SDS011;11194;48.092;-1.382;2023-05-07T09:03:26;6.70;;;4.40;;
22060;SDS011;11194;48.092;-1.382;2023-05-07T09:05:52;7.60;;;4.40;;
22060;SDS011;11194;48.092;-1.382;2023-05-07T09:08:18;6.55;;;4.47;;
22060;SDS011;11194;48.092;-1.382;2023-05-07T09:10:44;7.55;;;5.20;;
22060;SDS011;11194;48.092;-1.382;2023-05-07T09:13:10;7.32;;;4.75;;
22060;SDS011;11194;48.092;-1.382;2023-05-07T09:15:39;6.75;;;4.40;;
22060;SDS011;11194;48.092;-1.382;2023-05-07T09:18:05;6.30;;;4.18;;
22060;SDS011;11194;48.092;-1.382;2023-05-07T09:20:31;5.43;;;3.30;;
22060;SDS011;11194;48.092;-1.382;2023-05-07T09:22:57;4.70;;;2.80;;
22060;SDS011;11194;48.092;-1.382;2023-05-07T09:25:30;6.15;;;3.45;;
22060;SDS011;11194;48.092;-1.382;2023-05-07T09:27:56;5.13;;;3.22;;
22060;SDS011;11194;48.092;-1.382;2023-05-07T09:30:22;7.53;;;3.42;;
22060;SDS011;11194;48.092;-1.382;2023-05-07T09:32:48;6.80;;;3.50;;
22060;SDS011;11194;48.092;-1.382;2023-05-07T09:35:17;6.60;;;3.60;;
22060;SDS011;11194;48.092;-1.382;2023-05-07T09:37:46;4.78;;;3.38;;
22060;SDS011;11194;48.092;-1.382;2023-05-07T09:40:28;6.65;;;3.85;;
22060;SDS011;11194;48.092;-1.382;2023-05-07T09:42:55;6.75;;;3.88;;
22060;SDS011;11194;48.092;-1.382;2023-05-07T09:45:22;6.13;;;3.38;;
22060;SDS011;11194;48.092;-1.382;2023-05-07T09:47:48;4.57;;;3.22;;
22060;SDS011;11194;48.092;-1.382;2023-05-07T09:50:15;4.45;;;2.75;;
22060;SDS011;11194;48.092;-1.382;2023-05-07T09:52:42;5.03;;;3.30;;
22060;SDS011;11194;48.092;-1.382;2023-05-07T09:55:08;5.07;;;3.45;;
22060;SDS011;11194;48.092;-1.382;2023-05-07T09:57:34;4.95;;;3.00;;
22060;SDS011;11194;48.092;-1.382;2023-05-07T10:00:02;5.38;;;2.95;;
22060;SDS011;11194;48.092;-1.382;2023-05-07T10:02:31;6.55;;;3.35;;
22060;SDS011;11194;48.092;-1.382;2023-05-07T10:05:01;4.80;;;3.10;;
22060;SDS011;11194;48.092;-1.382;2023-05-07T10:07:28;4.85;;;3.00;;
22060;SDS011;11194;48.092;-1.382;2023-05-07T10:09:54;4.88;;;3.05;;
22060;SDS011;11194;48.092;-1.382;2023-05-07T10:12:20;4.30;;;3.55;;
22060;SDS011;11194;48.092;-1.382;2023-05-07T10:14:46;4.00;;;3.15;;
22060;SDS011;11194;48.092;-1.382;2023-05-07T10:17:13;4.25;;;3.40;;
22060;SDS011;11194;48.092;-1.382;2023-05-07T10:19:39;3.63;;;3.10;;
22060;SDS011;11194;48.092;-1.382;2023-05-07T10:22:06;4.38;;;2.90;;
22060;SDS011;11194;48.092;-1.382;2023-05-07T10:24:33;4.13;;;2.90;;
22060;SDS011;11194;48.092;-1.382;2023-05-07T10:27:00;4.05;;;2.50;;
22060;SDS011;11194;48.092;-1.382;2023-05-07T10:34:28;2.78;;;2.20;;
22060;SDS011;11194;48.092;-1.382;2023-05-07T10:36:55;3.97;;;2.35;;
22060;SDS011;11194;48.092;-1.382;2023-05-07T10:39:21;2.40;;;2.00;;
22060;SDS011;11194;48.092;-1.382;2023-05-07T10:41:48;2.50;;;2.05;;
22060;SDS011;11194;48.092;-1.382;2023-05-07T10:44:27;2.58;;;1.98;;
22060;SDS011;11194;48.092;-1.382;2023-05-07T10:47:04;3.58;;;2.65;;
22060;SDS011;11194;48.092;-1.382;2023-05-07T10:49:30;2.88;;;2.28;;
22060;SDS011;11194;48.092;-1.382;2023-05-07T10:54:41;4.95;;;2.80;;
22060;SDS011;11194;48.092;-1.382;2023-05-07T10:57:51;3.55;;;2.55;;
22060;SDS011;11194;48.092;-1.382;2023-05-07T11:00:00;3.72;;;2.42;;
22060;SDS011;11194;48.092;-1.382;2023-05-07T11:03:11;3.30;;;2.40;;
22060;SDS011;11194;48.092;-1.382;2023-05-07T11:05:22;5.03;;;3.10;;
22060;SDS011;11194;48.092;-1.382;2023-05-07T11:07:58;4.00;;;2.85;;
22060;SDS011;11194;48.092;-1.382;2023-05-07T11:10:46;4.35;;;3.20;;
22060;SDS011;11194;48.092;-1.382;2023-05-07T11:13:10;4.15;;;2.88;;
22060;SDS011;11194;48.092;-1.382;2023-05-07T11:15:37;3.15;;;2.55;;
22060;SDS011;11194;48.092;-1.382;2023-05-07T11:18:03;3.08;;;2.55;;
22060;SDS011;11194;48.092;-1.382;2023-05-07T11:26:06;4.63;;;2.70;;
22060;SDS011;11194;48.092;-1.382;2023-05-07T11:28:36;4.00;;;2.88;;
22060;SDS011;11194;48.092;-1.382;2023-05-07T11:31:03;5.38;;;3.30;;
22060;SDS011;11194;48.092;-1.382;2023-05-07T11:33:32;4.32;;;3.53;;
22060;SDS011;11194;48.092;-1.382;2023-05-07T11:35:58;5.22;;;3.55;;
22060;SDS011;11194;48.092;-1.382;2023-05-07T11:38:25;4.38;;;2.97;;
22060;SDS011;11194;48.092;-1.382;2023-05-07T11:40:51;3.72;;;3.20;;
22060;SDS011;11194;48.092;-1.382;2023-05-07T11:43:17;4.40;;;3.28;;
22060;SDS011;11194;48.092;-1.382;2023-05-07T11:45:46;4.13;;;2.90;;
22060;SDS011;11194;48.092;-1.382;2023-05-07T11:48:13;3.95;;;3.10;;
22060;SDS011;11194;48.092;-1.382;2023-05-07T11:53:25;5.68;;;3.92;;
22060;SDS011;11194;48.092;-1.382;2023-05-07T11:55:57;4.03;;;3.40;;
22060;SDS011;11194;48.092;-1.382;2023-05-07T11:58:23;4.70;;;3.75;;
22060;SDS011;11194;48.092;-1.382;2023-05-07T12:00:53;4.30;;;3.17;;
22060;SDS011;11194;48.092;-1.382;2023-05-07T12:03:19;6.80;;;4.03;;
22060;SDS011;11194;48.092;-1.382;2023-05-07T12:05:46;4.25;;;3.65;;
22060;SDS011;11194;48.092;-1.382;2023-05-07T12:08:15;5.85;;;3.00;;
22060;SDS011;11194;48.092;-1.382;2023-05-07T12:10:45;3.97;;;3.35;;
22060;SDS011;11194;48.092;-1.382;2023-05-07T12:13:16;6.18;;;3.72;;
22060;SDS011;11194;48.092;-1.382;2023-05-07T12:15:43;4.90;;;3.80;;
22060;SDS011;11194;48.092;-1.382;2023-05-07T12:18:09;4.65;;;3.22;;
22060;SDS011;11194;48.092;-1.382;2023-05-07T12:20:36;7.90;;;3.83;;
22060;SDS011;11194;48.092;-1.382;2023-05-07T12:23:02;6.13;;;3.40;;
22060;SDS011;11194;48.092;-1.382;2023-05-07T12:25:31;3.70;;;3.10;;
22060;SDS011;11194;48.092;-1.382;2023-05-07T12:27:57;4.25;;;3.33;;
22060;SDS011;11194;48.092;-1.382;2023-05-07T12:30:25;5.38;;;3.70;;
22060;SDS011;11194;48.092;-1.382;2023-05-07T12:32:54;6.63;;;3.95;;
22060;SDS011;11194;48.092;-1.382;2023-05-07T12:35:30;5.18;;;3.90;;
22060;SDS011;11194;48.092;-1.382;2023-05-07T12:38:00;6.88;;;3.97;;
22060;SDS011;11194;48.092;-1.382;2023-05-07T12:40:36;6.78;;;3.47;;
22060;SDS011;11194;48.092;-1.382;2023-05-07T12:43:02;5.93;;;3.38;;
22060;SDS011;11194;48.092;-1.382;2023-05-07T12:45:28;5.25;;;3.75;;
22060;SDS011;11194;48.092;-1.382;2023-05-07T12:47:54;7.63;;;4.10;;
22060;SDS011;11194;48.092;-1.382;2023-05-07T12:50:20;5.38;;;3.85;;
22060;SDS011;11194;48.092;-1.382;2023-05-07T12:52:46;6.25;;;4.35;;
22060;SDS011;11194;48.092;-1.382;2023-05-07T12:55:16;8.73;;;4.20;;
22060;SDS011;11194;48.092;-1.382;2023-05-07T12:57:43;6.05;;;3.80;;
22060;SDS011;11194;48.092;-1.382;2023-05-07T13:00:09;6.40;;;3.90;;
22060;SDS011;11194;48.092;-1.382;2023-05-07T13:02:39;6.28;;;3.75;;
22060;SDS011;11194;48.092;-1.382;2023-05-07T13:05:05;4.75;;;3.33;;
22060;SDS011;11194;48.092;-1.382;2023-05-07T13:07:32;6.95;;;3.90;;
22060;SDS011;11194;48.092;-1.382;2023-05-07T13:09:58;5.18;;;3.50;;
22060;SDS011;11194;48.092;-1.382;2023-05-07T13:12:24;6.00;;;3.40;;
22060;SDS011;11194;48.092;-1.382;2023-05-07T13:14:50;4.88;;;3.00;;
22060;SDS011;11194;48.092;-1.382;2023-05-07T13:17:16;6.55;;;3.20;;
22060;SDS011;11194;48.092;-1.382;2023-05-07T13:19:43;6.15;;;3.40;;
22060;SDS011;11194;48.092;-1.382;2023-05-07T13:22:09;5.63;;;3.42;;
22060;SDS011;11194;48.092;-1.382;2023-05-07T13:24:35;4.78;;;2.88;;
22060;SDS011;11194;48.092;-1.382;2023-05-07T13:27:02;4.15;;;2.88;;
22060;SDS011;11194;48.092;-1.382;2023-05-07T13:29:28;6.45;;;3.05;;
22060;SDS011;11194;48.092;-1.382;2023-05-07T13:31:56;5.43;;;2.47;;
22060;SDS011;11194;48.092;-1.382;2023-05-07T13:34:22;4.25;;;2.60;;
22060;SDS011;11194;48.092;-1.382;2023-05-07T13:36:48;4.60;;;2.80;;
22060;SDS011;11194;48.092;-1.382;2023-05-07T13:39:14;3.53;;;2.78;;
22060;SDS011;11194;48.092;-1.382;2023-05-07T13:41:40;5.07;;;2.85;;
22060;SDS011;11194;48.092;-1.382;2023-05-07T13:44:06;4.78;;;2.85;;
22060;SDS011;11194;48.092;-1.382;2023-05-07T13:46:32;5.15;;;2.72;;
22060;SDS011;11194;48.092;-1.382;2023-05-07T13:48:59;4.63;;;3.00;;
22060;SDS011;11194;48.092;-1.382;2023-05-07T13:51:25;4.32;;;2.67;;
22060;SDS011;11194;48.092;-1.382;2023-05-07T13:53:51;5.25;;;3.10;;
22060;SDS011;11194;48.092;-1.382;2023-05-07T13:56:19;5.05;;;3.05;;
22060;SDS011;11194;48.092;-1.382;2023-05-07T13:58:46;4.78;;;2.70;;
22060;SDS011;11194;48.092;-1.382;2023-05-07T14:01:12;5.22;;;2.70;;
22060;SDS011;11194;48.092;-1.382;2023-05-07T14:03:38;4.13;;;2.67;;
22060;SDS011;11194;48.092;-1.382;2023-05-07T14:06:05;4.05;;;2.85;;
22060;SDS011;11194;48.092;-1.382;2023-05-07T14:08:31;5.47;;;2.38;;
22060;SDS011;11194;48.092;-1.382;2023-05-07T14:10:57;6.63;;;2.60;;
22060;SDS011;11194;48.092;-1.382;2023-05-07T14:13:23;4.13;;;2.40;;
22060;SDS011;11194;48.092;-1.382;2023-05-07T14:15:49;4.47;;;2.78;;
22060;SDS011;11194;48.092;-1.382;2023-05-07T14:18:15;8.88;;;2.88;;
22060;SDS011;11194;48.092;-1.382;2023-05-07T14:20:41;3.58;;;2.50;;
22060;SDS011;11194;48.092;-1.382;2023-05-07T14:23:12;3.75;;;2.22;;
22060;SDS011;11194;48.092;-1.382;2023-05-07T14:25:39;4.43;;;2.47;;
22060;SDS011;11194;48.092;-1.382;2023-05-07T14:28:05;4.43;;;2.40;;
22060;SDS011;11194;48.092;-1.382;2023-05-07T14:30:31;4.13;;;2.53;;
22060;SDS011;11194;48.092;-1.382;2023-05-07T14:32:57;3.63;;;2.10;;
22060;SDS011;11194;48.092;-1.382;2023-05-07T14:35:23;5.55;;;2.83;;
22060;SDS011;11194;48.092;-1.382;2023-05-07T14:37:49;5.10;;;2.30;;
22060;SDS011;11194;48.092;-1.382;2023-05-07T14:40:15;2.70;;;1.90;;
22060;SDS011;11194;48.092;-1.382;2023-05-07T14:42:41;3.80;;;2.30;;
22060;SDS011;11194;48.092;-1.382;2023-05-07T14:45:07;3.10;;;2.20;;
22060;SDS011;11194;48.092;-1.382;2023-05-07T14:47:33;2.67;;;2.10;;
22060;SDS011;11194;48.092;-1.382;2023-05-07T14:50:00;3.92;;;2.10;;
22060;SDS011;11194;48.092;-1.382;2023-05-07T14:52:26;4.45;;;2.13;;
22060;SDS011;11194;48.092;-1.382;2023-05-07T14:54:52;2.25;;;1.95;;
22060;SDS011;11194;48.092;-1.382;2023-05-07T14:57:18;5.25;;;2.22;;
22060;SDS011;11194;48.092;-1.382;2023-05-07T14:59:44;2.97;;;1.80;;
22060;SDS011;11194;48.092;-1.382;2023-05-07T15:02:11;4.20;;;2.30;;
22060;SDS011;11194;48.092;-1.382;2023-05-07T15:04:38;4.10;;;2.40;;
22060;SDS011;11194;48.092;-1.382;2023-05-07T15:07:10;3.22;;;2.08;;
22060;SDS011;11194;48.092;-1.382;2023-05-07T15:09:36;3.42;;;1.85;;
22060;SDS011;11194;48.092;-1.382;2023-05-07T15:12:02;3.42;;;2.05;;
22060;SDS011;11194;48.092;-1.382;2023-05-07T15:14:29;3.75;;;2.03;;
22060;SDS011;11194;48.092;-1.382;2023-05-07T15:16:55;5.20;;;2.20;;
22060;SDS011;11194;48.092;-1.382;2023-05-07T15:19:21;2.53;;;1.80;;
22060;SDS011;11194;48.092;-1.382;2023-05-07T15:21:49;3.83;;;1.70;;
22060;SDS011;11194;48.092;-1.382;2023-05-07T15:24:15;3.80;;;1.70;;
22060;SDS011;11194;48.092;-1.382;2023-05-07T15:26:41;3.53;;;2.00;;
22060;SDS011;11194;48.092;-1.382;2023-05-07T15:29:07;3.72;;;1.70;;
22060;SDS011;11194;48.092;-1.382;2023-05-07T15:31:35;4.32;;;1.90;;
22060;SDS011;11194;48.092;-1.382;2023-05-07T15:34:02;3.00;;;1.98;;
22060;SDS011;11194;48.092;-1.382;2023-05-07T15:36:28;3.60;;;2.08;;
22060;SDS011;11194;48.092;-1.382;2023-05-07T15:38:55;3.72;;;2.28;;
22060;SDS011;11194;48.092;-1.382;2023-05-07T15:41:21;4.90;;;1.73;;
22060;SDS011;11194;48.092;-1.382;2023-05-07T15:43:48;3.88;;;2.25;;
22060;SDS011;11194;48.092;-1.382;2023-05-07T15:46:18;4.13;;;2.00;;
22060;SDS011;11194;48.092;-1.382;2023-05-07T15:48:45;3.33;;;1.77;;
22060;SDS011;11194;48.092;-1.382;2023-05-07T15:51:11;3.25;;;1.90;;
22060;SDS011;11194;48.092;-1.382;2023-05-07T15:53:37;6.45;;;2.17;;
22060;SDS011;11194;48.092;-1.382;2023-05-07T15:56:04;3.55;;;1.83;;
22060;SDS011;11194;48.092;-1.382;2023-05-07T15:58:31;3.45;;;1.70;;
22060;SDS011;11194;48.092;-1.382;2023-05-07T16:00:57;4.28;;;1.80;;
22060;SDS011;11194;48.092;-1.382;2023-05-07T16:03:23;4.60;;;2.40;;
22060;SDS011;11194;48.092;-1.382;2023-05-07T16:05:49;4.80;;;2.08;;
22060;SDS011;11194;48.092;-1.382;2023-05-07T16:08:15;5.45;;;2.00;;
22060;SDS011;11194;48.092;-1.382;2023-05-07T16:10:41;4.90;;;2.13;;
22060;SDS011;11194;48.092;-1.382;2023-05-07T16:13:07;5.05;;;2.10;;
22060;SDS011;11194;48.092;-1.382;2023-05-07T16:15:33;4.80;;;2.10;;
22060;SDS011;11194;48.092;-1.382;2023-05-07T16:18:00;6.60;;;1.98;;
22060;SDS011;11194;48.092;-1.382;2023-05-07T16:20:26;4.43;;;1.95;;
22060;SDS011;11194;48.092;-1.382;2023-05-07T16:22:56;6.88;;;2.00;;
22060;SDS011;11194;48.092;-1.382;2023-05-07T16:25:22;3.08;;;1.77;;
22060;SDS011;11194;48.092;-1.382;2023-05-07T16:27:48;4.53;;;1.77;;
22060;SDS011;11194;48.092;-1.382;2023-05-07T16:30:14;4.88;;;2.15;;
22060;SDS011;11194;48.092;-1.382;2023-05-07T16:32:40;4.78;;;2.50;;
22060;SDS011;11194;48.092;-1.382;2023-05-07T16:35:06;5.05;;;2.25;;
22060;SDS011;11194;48.092;-1.382;2023-05-07T16:37:32;2.58;;;1.88;;
22060;SDS011;11194;48.092;-1.382;2023-05-07T16:40:02;4.35;;;1.90;;
22060;SDS011;11194;48.092;-1.382;2023-05-07T16:42:32;4.30;;;2.20;;
22060;SDS011;11194;48.092;-1.382;2023-05-07T16:44:58;5.63;;;2.22;;
22060;SDS011;11194;48.092;-1.382;2023-05-07T16:47:24;4.30;;;2.25;;
22060;SDS011;11194;48.092;-1.382;2023-05-07T16:49:50;4.18;;;2.10;;
22060;SDS011;11194;48.092;-1.382;2023-05-07T16:52:16;5.43;;;2.15;;
22060;SDS011;11194;48.092;-1.382;2023-05-07T16:54:42;3.75;;;2.22;;
22060;SDS011;11194;48.092;-1.382;2023-05-07T16:57:08;6.18;;;2.47;;
22060;SDS011;11194;48.092;-1.382;2023-05-07T16:59:35;6.45;;;1.90;;
22060;SDS011;11194;48.092;-1.382;2023-05-07T17:02:01;5.63;;;2.00;;
22060;SDS011;11194;48.092;-1.382;2023-05-07T17:04:27;6.82;;;2.63;;
22060;SDS011;11194;48.092;-1.382;2023-05-07T17:06:54;4.50;;;2.40;;
22060;SDS011;11194;48.092;-1.382;2023-05-07T17:09:21;5.65;;;2.45;;
22060;SDS011;11194;48.092;-1.382;2023-05-07T17:11:47;6.20;;;2.03;;
22060;SDS011;11194;48.092;-1.382;2023-05-07T17:14:13;4.32;;;2.30;;